Overview Statistics Trail Chart Weather Telemetry Raw packets
 

This is the latest recevied weather packets stored in our database for station/object WX5KDM. If no packets are shown the sender has not sent any weather packets the latest 10 day(s).

<< 26 27 28 29 30 31 32 >>
Time Temp. Humidity Pressure Rain* Wind** Luminosity Snow
1788443414 32.22° C 69% 1017.7 hPa 0 mm - - -
1788443113 30.56° C 72% 1017.8 hPa 0 mm - - -
1788442809 30.56° C 73% 1017.8 hPa 0 mm - - -
1788442507 30° C 75% 1017.8 hPa 0 mm - - -
1788442202 30° C 75% 1017.8 hPa 0 mm - - -
1788441897 29.44° C 77% 1017.8 hPa 0 mm - - -
1788441596 28.89° C 79% 1017.9 hPa 0 mm - - -
1788441292 28.33° C 80% 1017.9 hPa 0 mm - - -
1788440990 28.33° C 81% 1018.2 hPa 0 mm - - -
1788440686 27.78° C 83% 1017.9 hPa 0 mm - - -
1788440384 27.78° C 84% 1018 hPa 0 mm - - -
1788440079 27.22° C 83% 1017.8 hPa 0 mm - - -
1788439773 27.22° C 85% 1017.9 hPa 0 mm - - -
1788439474 27.22° C 84% 1018 hPa 0 mm - - -
1788439167 26.11° C 89% 1017.9 hPa 0 mm - - -
1788438862 25.56° C 90% 1018 hPa 0 mm - - -
1788438561 25° C 92% 1017.8 hPa 0 mm - - -
1788438261 25° C 93% 1017.6 hPa 0 mm - - -
1788437960 24.44° C 94% 1017.7 hPa 0 mm - - -
1788437655 23.89° C 95% 1017.5 hPa 0 mm - - -
1788437352 23.89° C 95% 1017.8 hPa 0 mm - - -
1788437050 23.89° C 96% 1017.6 hPa 0 mm - - -
1788436749 23.33° C 96% 1017.4 hPa 0 mm - - -
1788436449 23.33° C 96% 1017.5 hPa 0 mm - - -
1788436143 23.33° C 96% 1017.4 hPa 0 mm - - -

* Rain latest hour (hover to see other rain measurements)
** Current wind speed in m/s (hover to see current wind gust speed)